Abbey Wood, United Kingdom
Current Conditions -  °F | °C
As of 9:20 PM on Saturday 22 Nov 2014 (Local Time) from EGLC Reporting Station
Light Rain Light Rain  
Wind Chill: 14°   Ceiling: 800
Heat Index: 14°   Visibility: 2.5mi
Dew Point: 13°   Wind: 0mph
Humidity: 94%   Direction: NA
Pressure: 29.97"   Gusts: NA
Location:  51.49°N, 0.11°E
Report Text: EGLC 222120Z AUTO 00000KT 4000 -RA BKN008/// BKN009/// 14/13 Q1015
Loading
Personal Weather Stations






























Interactive Weather Map New forecast layout! Learn more

10-Day Weather Forecast

Advertisements
Track Severe Weather on mobile